sensor_id;sensor_type;location;lat;lon;timestamp;noise_LAeq;noise_LA_min;noise_LA_max;noise_LA01;noise_LA95
43938;Laerm;71382;47.750;10.226;2023-10-09T00:01:25;31.30;29.78;43.55;;
43938;Laerm;71382;47.750;10.226;2023-10-09T00:03:51;32.30;29.64;49.06;;
43938;Laerm;71382;47.750;10.226;2023-10-09T00:06:19;31.55;29.92;46.69;;
43938;Laerm;71382;47.750;10.226;2023-10-09T00:09:02;31.76;29.93;45.70;;
43938;Laerm;71382;47.750;10.226;2023-10-09T00:11:47;31.69;29.78;41.33;;
43938;Laerm;71382;47.750;10.226;2023-10-09T00:14:14;32.27;30.00;42.92;;
43938;Laerm;71382;47.750;10.226;2023-10-09T00:16:41;33.68;29.91;51.81;;
43938;Laerm;71382;47.750;10.226;2023-10-09T00:19:14;31.90;29.92;41.99;;
43938;Laerm;71382;47.750;10.226;2023-10-09T00:21:47;33.69;30.03;54.42;;
43938;Laerm;71382;47.750;10.226;2023-10-09T00:24:13;33.73;30.10;53.56;;
43938;Laerm;71382;47.750;10.226;2023-10-09T00:26:39;31.87;29.98;42.48;;
43938;Laerm;71382;47.750;10.226;2023-10-09T00:29:09;31.74;29.61;47.47;;
43938;Laerm;71382;47.750;10.226;2023-10-09T00:31:48;32.44;29.70;47.49;;
43938;Laerm;71382;47.750;10.226;2023-10-09T00:34:17;34.80;29.47;59.47;;
43938;Laerm;71382;47.750;10.226;2023-10-09T00:36:46;34.32;29.41;51.87;;
43938;Laerm;71382;47.750;10.226;2023-10-09T00:39:19;30.55;29.58;40.32;;
43938;Laerm;71382;47.750;10.226;2023-10-09T00:42:05;31.14;29.38;43.84;;
43938;Laerm;71382;47.750;10.226;2023-10-09T00:44:32;31.44;29.78;42.91;;
43938;Laerm;71382;47.750;10.226;2023-10-09T00:47:05;30.94;29.67;40.28;;
43938;Laerm;71382;47.750;10.226;2023-10-09T00:49:51;30.78;29.79;39.03;;
43938;Laerm;71382;47.750;10.226;2023-10-09T00:52:29;32.50;29.85;47.66;;
43938;Laerm;71382;47.750;10.226;2023-10-09T00:55:02;32.01;29.76;49.36;;
43938;Laerm;71382;47.750;10.226;2023-10-09T00:57:53;35.90;29.96;52.71;;
43938;Laerm;71382;47.750;10.226;2023-10-09T01:00:25;31.50;29.59;51.84;;
43938;Laerm;71382;47.750;10.226;2023-10-09T01:03:00;33.29;29.98;54.10;;
43938;Laerm;71382;47.750;10.226;2023-10-09T01:05:48;36.08;29.64;56.33;;
43938;Laerm;71382;47.750;10.226;2023-10-09T01:08:21;32.09;29.60;46.86;;
43938;Laerm;71382;47.750;10.226;2023-10-09T01:10:55;32.61;29.53;46.78;;
43938;Laerm;71382;47.750;10.226;2023-10-09T01:13:34;31.03;29.50;43.56;;
43938;Laerm;71382;47.750;10.226;2023-10-09T01:16:12;30.55;29.48;39.78;;
43938;Laerm;71382;47.750;10.226;2023-10-09T01:18:41;36.90;29.47;55.89;;
43938;Laerm;71382;47.750;10.226;2023-10-09T01:21:07;35.54;29.53;52.88;;
43938;Laerm;71382;47.750;10.226;2023-10-09T01:23:32;32.92;29.57;51.23;;
43938;Laerm;71382;47.750;10.226;2023-10-09T01:25:59;34.08;29.59;53.29;;
43938;Laerm;71382;47.750;10.226;2023-10-09T01:28:24;38.06;29.55;62.50;;
43938;Laerm;71382;47.750;10.226;2023-10-09T01:30:51;31.84;29.62;48.02;;
43938;Laerm;71382;47.750;10.226;2023-10-09T01:33:17;31.43;29.63;43.87;;
43938;Laerm;71382;47.750;10.226;2023-10-09T01:35:49;35.83;29.76;54.41;;
43938;Laerm;71382;47.750;10.226;2023-10-09T01:38:19;31.98;29.78;48.05;;
43938;Laerm;71382;47.750;10.226;2023-10-09T01:40:55;32.13;29.95;48.77;;
43938;Laerm;71382;47.750;10.226;2023-10-09T01:43:28;42.06;29.58;57.58;;
43938;Laerm;71382;47.750;10.226;2023-10-09T01:45:54;31.54;29.64;46.10;;
43938;Laerm;71382;47.750;10.226;2023-10-09T01:48:19;38.08;29.57;57.43;;
43938;Laerm;71382;47.750;10.226;2023-10-09T01:50:49;32.80;29.68;47.78;;
43938;Laerm;71382;47.750;10.226;2023-10-09T01:53:16;31.73;29.40;47.88;;
43938;Laerm;71382;47.750;10.226;2023-10-09T01:55:44;31.13;29.40;42.85;;
43938;Laerm;71382;47.750;10.226;2023-10-09T01:58:11;30.51;29.45;41.50;;
43938;Laerm;71382;47.750;10.226;2023-10-09T02:00:53;30.89;29.49;43.75;;
43938;Laerm;71382;47.750;10.226;2023-10-09T02:03:22;31.04;29.42;44.61;;
43938;Laerm;71382;47.750;10.226;2023-10-09T02:06:02;31.35;29.67;44.16;;
43938;Laerm;71382;47.750;10.226;2023-10-09T02:08:43;31.07;29.71;38.70;;
43938;Laerm;71382;47.750;10.226;2023-10-09T02:11:15;38.36;29.77;60.70;;
43938;Laerm;71382;47.750;10.226;2023-10-09T02:13:52;33.47;29.75;48.99;;
43938;Laerm;71382;47.750;10.226;2023-10-09T02:16:36;32.02;29.88;47.30;;
43938;Laerm;71382;47.750;10.226;2023-10-09T02:19:07;34.69;29.92;52.20;;
43938;Laerm;71382;47.750;10.226;2023-10-09T02:21:53;34.68;30.04;52.24;;
43938;Laerm;71382;47.750;10.226;2023-10-09T02:24:18;38.46;30.51;52.35;;
43938;Laerm;71382;47.750;10.226;2023-10-09T02:27:04;32.42;30.37;42.48;;
43938;Laerm;71382;47.750;10.226;2023-10-09T02:29:32;38.86;30.26;60.96;;
43938;Laerm;71382;47.750;10.226;2023-10-09T02:32:00;35.64;30.48;52.28;;
43938;Laerm;71382;47.750;10.226;2023-10-09T02:34:38;35.43;30.65;50.28;;
43938;Laerm;71382;47.750;10.226;2023-10-09T02:37:04;33.33;30.39;49.11;;
43938;Laerm;71382;47.750;10.226;2023-10-09T02:39:38;34.23;30.37;49.70;;
43938;Laerm;71382;47.750;10.226;2023-10-09T02:42:13;33.37;30.78;44.56;;
43938;Laerm;71382;47.750;10.226;2023-10-09T02:44:38;32.55;30.50;42.06;;
43938;Laerm;71382;47.750;10.226;2023-10-09T02:47:14;34.75;30.64;53.22;;
43938;Laerm;71382;47.750;10.226;2023-10-09T02:49:48;34.11;30.64;53.19;;
43938;Laerm;71382;47.750;10.226;2023-10-09T02:52:14;39.50;30.79;52.68;;
43938;Laerm;71382;47.750;10.226;2023-10-09T02:54:47;34.60;30.64;50.75;;
43938;Laerm;71382;47.750;10.226;2023-10-09T02:57:13;35.80;30.90;51.00;;
43938;Laerm;71382;47.750;10.226;2023-10-09T02:59:48;33.15;30.56;45.74;;
43938;Laerm;71382;47.750;10.226;2023-10-09T03:02:17;36.75;30.42;48.65;;
43938;Laerm;71382;47.750;10.226;2023-10-09T03:04:43;33.53;30.64;51.83;;
43938;Laerm;71382;47.750;10.226;2023-10-09T03:07:08;35.32;30.86;59.99;;
43938;Laerm;71382;47.750;10.226;2023-10-09T03:09:35;39.29;30.69;56.47;;
43938;Laerm;71382;47.750;10.226;2023-10-09T03:12:02;36.55;30.79;47.55;;
43938;Laerm;71382;47.750;10.226;2023-10-09T03:14:30;36.50;30.76;56.56;;
43938;Laerm;71382;47.750;10.226;2023-10-09T03:16:56;37.13;30.77;51.39;;
43938;Laerm;71382;47.750;10.226;2023-10-09T03:19:22;37.40;30.92;56.80;;
43938;Laerm;71382;47.750;10.226;2023-10-09T03:21:48;38.66;31.36;52.35;;
43938;Laerm;71382;47.750;10.226;2023-10-09T03:24:13;42.20;31.33;57.73;;
43938;Laerm;71382;47.750;10.226;2023-10-09T03:26:41;36.03;31.07;53.31;;
43938;Laerm;71382;47.750;10.226;2023-10-09T03:29:06;35.54;31.03;47.21;;
43938;Laerm;71382;47.750;10.226;2023-10-09T03:31:38;39.93;31.24;52.14;;
43938;Laerm;71382;47.750;10.226;2023-10-09T03:34:04;38.65;31.07;55.80;;
43938;Laerm;71382;47.750;10.226;2023-10-09T03:36:30;39.00;30.90;53.75;;
43938;Laerm;71382;47.750;10.226;2023-10-09T03:38:56;38.53;31.21;54.61;;
43938;Laerm;71382;47.750;10.226;2023-10-09T03:41:23;37.88;31.40;53.60;;
43938;Laerm;71382;47.750;10.226;2023-10-09T03:43:52;42.47;31.21;67.13;;
43938;Laerm;71382;47.750;10.226;2023-10-09T03:46:17;42.80;31.78;60.50;;
43938;Laerm;71382;47.750;10.226;2023-10-09T03:48:47;39.82;31.72;59.69;;
43938;Laerm;71382;47.750;10.226;2023-10-09T03:51:13;45.75;32.14;67.57;;
43938;Laerm;71382;47.750;10.226;2023-10-09T03:53:46;46.94;32.24;64.47;;
43938;Laerm;71382;47.750;10.226;2023-10-09T03:56:12;41.51;31.85;62.13;;
43938;Laerm;71382;47.750;10.226;2023-10-09T03:58:42;42.70;31.94;61.04;;
43938;Laerm;71382;47.750;10.226;2023-10-09T04:01:17;42.52;32.47;66.25;;
43938;Laerm;71382;47.750;10.226;2023-10-09T04:03:53;41.53;32.32;60.30;;
43938;Laerm;71382;47.750;10.226;2023-10-09T04:06:28;42.42;31.94;65.42;;
43938;Laerm;71382;47.750;10.226;2023-10-09T04:09:06;38.17;32.06;51.27;;
43938;Laerm;71382;47.750;10.226;2023-10-09T04:11:54;41.88;31.91;56.85;;
43938;Laerm;71382;47.750;10.226;2023-10-09T04:14:41;45.85;32.17;69.35;;
43938;Laerm;71382;47.750;10.226;2023-10-09T04:17:30;37.34;32.11;57.21;;
43938;Laerm;71382;47.750;10.226;2023-10-09T04:19:59;37.16;31.96;52.18;;
43938;Laerm;71382;47.750;10.226;2023-10-09T04:22:44;46.11;32.25;60.02;;
43938;Laerm;71382;47.750;10.226;2023-10-09T04:25:17;42.52;32.21;61.29;;
43938;Laerm;71382;47.750;10.226;2023-10-09T04:27:58;38.60;33.08;52.10;;
43938;Laerm;71382;47.750;10.226;2023-10-09T04:30:44;45.23;33.99;62.27;;
43938;Laerm;71382;47.750;10.226;2023-10-09T04:33:21;49.49;33.34;64.34;;
43938;Laerm;71382;47.750;10.226;2023-10-09T04:36:15;48.17;32.99;63.36;;
43938;Laerm;71382;47.750;10.226;2023-10-09T04:38:54;40.27;33.22;55.61;;
43938;Laerm;71382;47.750;10.226;2023-10-09T04:41:31;43.76;34.24;55.67;;
43938;Laerm;71382;47.750;10.226;2023-10-09T04:44:17;42.80;33.14;60.86;;
43938;Laerm;71382;47.750;10.226;2023-10-09T04:46:46;41.97;33.85;55.72;;
43938;Laerm;71382;47.750;10.226;2023-10-09T04:49:30;41.98;34.51;55.04;;
43938;Laerm;71382;47.750;10.226;2023-10-09T04:51:59;45.55;35.29;63.09;;
43938;Laerm;71382;47.750;10.226;2023-10-09T04:54:43;46.39;34.49;61.65;;
43938;Laerm;71382;47.750;10.226;2023-10-09T04:57:27;42.78;33.71;52.88;;
43938;Laerm;71382;47.750;10.226;2023-10-09T04:59:54;43.23;33.87;62.17;;
43938;Laerm;71382;47.750;10.226;2023-10-09T05:02:26;48.48;34.09;61.88;;
43938;Laerm;71382;47.750;10.226;2023-10-09T05:05:01;50.59;46.40;54.97;;
43938;Laerm;71382;47.750;10.226;2023-10-09T05:08:02;51.47;46.96;62.85;;
43938;Laerm;71382;47.750;10.226;2023-10-09T05:10:44;50.83;47.18;58.34;;
43938;Laerm;71382;47.750;10.226;2023-10-09T05:13:33;51.11;47.41;59.70;;
43938;Laerm;71382;47.750;10.226;2023-10-09T05:16:14;51.22;47.45;63.36;;
43938;Laerm;71382;47.750;10.226;2023-10-09T05:18:58;50.48;47.00;55.06;;
43938;Laerm;71382;47.750;10.226;2023-10-09T05:21:35;50.49;46.84;61.44;;
43938;Laerm;71382;47.750;10.226;2023-10-09T05:24:03;52.10;47.14;70.88;;
43938;Laerm;71382;47.750;10.226;2023-10-09T05:26:48;51.98;47.23;63.51;;
43938;Laerm;71382;47.750;10.226;2023-10-09T05:29:15;50.60;46.54;54.69;;
43938;Laerm;71382;47.750;10.226;2023-10-09T05:31:59;50.66;46.60;54.93;;
43938;Laerm;71382;47.750;10.226;2023-10-09T05:34:31;50.52;46.93;55.69;;
43938;Laerm;71382;47.750;10.226;2023-10-09T05:37:00;51.39;47.41;65.07;;
43938;Laerm;71382;47.750;10.226;2023-10-09T05:39:43;51.59;47.45;65.82;;
43938;Laerm;71382;47.750;10.226;2023-10-09T05:42:09;51.15;47.09;59.24;;
43938;Laerm;71382;47.750;10.226;2023-10-09T05:44:43;51.30;46.45;59.30;;
43938;Laerm;71382;47.750;10.226;2023-10-09T05:47:41;51.02;47.15;66.07;;
43938;Laerm;71382;47.750;10.226;2023-10-09T05:50:19;51.06;47.29;56.11;;
43938;Laerm;71382;47.750;10.226;2023-10-09T05:52:44;51.37;47.17;58.34;;
43938;Laerm;71382;47.750;10.226;2023-10-09T05:55:22;50.70;47.44;53.97;;
43938;Laerm;71382;47.750;10.226;2023-10-09T05:58:06;50.99;47.16;59.34;;
43938;Laerm;71382;47.750;10.226;2023-10-09T06:01:10;52.01;44.15;68.75;;
43938;Laerm;71382;47.750;10.226;2023-10-09T06:03:54;48.77;42.34;61.00;;
43938;Laerm;71382;47.750;10.226;2023-10-09T06:06:20;48.15;41.68;67.19;;
43938;Laerm;71382;47.750;10.226;2023-10-09T06:09:04;47.30;41.54;55.99;;
43938;Laerm;71382;47.750;10.226;2023-10-09T06:11:39;47.04;41.05;54.17;;
43938;Laerm;71382;47.750;10.226;2023-10-09T06:14:07;46.82;41.14;57.25;;
43938;Laerm;71382;47.750;10.226;2023-10-09T06:16:39;48.88;41.27;60.12;;
43938;Laerm;71382;47.750;10.226;2023-10-09T06:19:12;48.35;40.03;66.98;;
43938;Laerm;71382;47.750;10.226;2023-10-09T06:21:52;47.71;41.49;56.50;;
43938;Laerm;71382;47.750;10.226;2023-10-09T06:24:19;46.79;41.43;53.07;;
43938;Laerm;71382;47.750;10.226;2023-10-09T06:26:45;46.93;41.21;54.18;;
43938;Laerm;71382;47.750;10.226;2023-10-09T06:29:37;48.21;42.13;55.70;;
43938;Laerm;71382;47.750;10.226;2023-10-09T06:32:09;46.65;41.80;51.22;;
43938;Laerm;71382;47.750;10.226;2023-10-09T06:34:45;48.77;41.75;60.18;;
43938;Laerm;71382;47.750;10.226;2023-10-09T06:37:12;47.92;41.10;58.37;;
43938;Laerm;71382;47.750;10.226;2023-10-09T06:39:55;46.01;40.44;50.39;;
43938;Laerm;71382;47.750;10.226;2023-10-09T06:42:22;48.15;41.99;62.61;;
43938;Laerm;71382;47.750;10.226;2023-10-09T06:45:00;48.79;42.11;61.74;;
43938;Laerm;71382;47.750;10.226;2023-10-09T06:47:25;46.32;41.22;50.78;;
43938;Laerm;71382;47.750;10.226;2023-10-09T06:49:51;46.76;41.52;56.14;;
43938;Laerm;71382;47.750;10.226;2023-10-09T06:52:35;49.27;40.31;62.88;;
43938;Laerm;71382;47.750;10.226;2023-10-09T06:55:18;46.64;41.74;51.35;;
43938;Laerm;71382;47.750;10.226;2023-10-09T06:57:57;47.67;42.41;51.96;;
43938;Laerm;71382;47.750;10.226;2023-10-09T07:00:27;46.72;40.92;51.19;;
43938;Laerm;71382;47.750;10.226;2023-10-09T07:03:11;47.26;40.85;56.93;;
43938;Laerm;71382;47.750;10.226;2023-10-09T07:05:39;46.76;41.02;55.63;;
43938;Laerm;71382;47.750;10.226;2023-10-09T07:08:23;45.54;37.62;63.53;;
43938;Laerm;71382;47.750;10.226;2023-10-09T07:11:00;42.10;37.31;56.39;;
43938;Laerm;71382;47.750;10.226;2023-10-09T07:13:45;43.93;37.65;63.54;;
43938;Laerm;71382;47.750;10.226;2023-10-09T07:16:21;45.24;38.24;58.27;;
43938;Laerm;71382;47.750;10.226;2023-10-09T07:18:55;44.09;38.06;66.45;;
43938;Laerm;71382;47.750;10.226;2023-10-09T07:21:20;46.68;38.74;66.81;;
43938;Laerm;71382;47.750;10.226;2023-10-09T07:23:54;48.39;42.22;57.61;;
43938;Laerm;71382;47.750;10.226;2023-10-09T07:26:22;47.69;40.81;57.54;;
43938;Laerm;71382;47.750;10.226;2023-10-09T07:29:03;51.78;42.24;65.36;;
43938;Laerm;71382;47.750;10.226;2023-10-09T07:31:44;48.57;41.39;60.49;;
43938;Laerm;71382;47.750;10.226;2023-10-09T07:34:23;52.09;42.52;73.18;;
43938;Laerm;71382;47.750;10.226;2023-10-09T07:37:08;48.88;41.06;65.85;;
43938;Laerm;71382;47.750;10.226;2023-10-09T07:39:35;48.10;41.76;62.21;;
43938;Laerm;71382;47.750;10.226;2023-10-09T07:42:09;48.47;41.53;59.14;;
43938;Laerm;71382;47.750;10.226;2023-10-09T07:44:51;51.96;43.32;63.96;;
43938;Laerm;71382;47.750;10.226;2023-10-09T07:47:21;49.80;42.33;64.52;;
43938;Laerm;71382;47.750;10.226;2023-10-09T07:50:11;49.25;42.81;61.66;;
43938;Laerm;71382;47.750;10.226;2023-10-09T07:52:37;49.44;42.84;65.76;;
43938;Laerm;71382;47.750;10.226;2023-10-09T07:55:09;50.83;43.20;66.95;;
43938;Laerm;71382;47.750;10.226;2023-10-09T07:57:52;49.38;42.09;59.03;;
43938;Laerm;71382;47.750;10.226;2023-10-09T08:00:17;49.61;42.92;61.81;;
43938;Laerm;71382;47.750;10.226;2023-10-09T08:03:01;49.77;41.46;69.31;;
43938;Laerm;71382;47.750;10.226;2023-10-09T08:05:42;47.99;42.43;59.86;;
43938;Laerm;71382;47.750;10.226;2023-10-09T08:08:10;49.34;42.42;66.76;;
43938;Laerm;71382;47.750;10.226;2023-10-09T08:10:44;47.78;41.42;62.44;;
43938;Laerm;71382;47.750;10.226;2023-10-09T08:13:28;48.23;41.97;65.56;;
43938;Laerm;71382;47.750;10.226;2023-10-09T08:16:11;50.44;41.98;64.05;;
43938;Laerm;71382;47.750;10.226;2023-10-09T08:18:45;47.52;41.43;58.75;;
43938;Laerm;71382;47.750;10.226;2023-10-09T08:21:11;49.20;42.46;65.23;;
43938;Laerm;71382;47.750;10.226;2023-10-09T08:23:37;47.93;42.50;59.05;;
43938;Laerm;71382;47.750;10.226;2023-10-09T08:26:18;48.57;41.42;64.66;;
43938;Laerm;71382;47.750;10.226;2023-10-09T08:28:57;48.25;41.88;64.65;;
43938;Laerm;71382;47.750;10.226;2023-10-09T08:31:43;48.34;41.62;61.95;;
43938;Laerm;71382;47.750;10.226;2023-10-09T08:34:15;47.75;42.01;57.85;;
43938;Laerm;71382;47.750;10.226;2023-10-09T08:36:51;50.41;42.50;64.86;;
43938;Laerm;71382;47.750;10.226;2023-10-09T08:39:18;49.40;42.55;70.64;;
43938;Laerm;71382;47.750;10.226;2023-10-09T08:41:51;50.52;42.68;69.59;;
43938;Laerm;71382;47.750;10.226;2023-10-09T08:44:17;50.29;42.42;65.89;;
43938;Laerm;71382;47.750;10.226;2023-10-09T08:46:48;49.94;42.01;64.81;;
43938;Laerm;71382;47.750;10.226;2023-10-09T08:49:15;48.32;42.06;64.87;;
43938;Laerm;71382;47.750;10.226;2023-10-09T08:51:41;48.22;40.73;64.72;;
43938;Laerm;71382;47.750;10.226;2023-10-09T08:54:07;48.10;41.55;60.40;;
43938;Laerm;71382;47.750;10.226;2023-10-09T08:56:36;50.41;42.50;73.08;;
43938;Laerm;71382;47.750;10.226;2023-10-09T08:59:05;49.90;43.13;64.21;;
43938;Laerm;71382;47.750;10.226;2023-10-09T09:01:30;48.08;42.09;60.95;;
43938;Laerm;71382;47.750;10.226;2023-10-09T09:03:57;48.43;41.71;60.09;;
43938;Laerm;71382;47.750;10.226;2023-10-09T09:06:25;49.81;42.28;70.27;;
43938;Laerm;71382;47.750;10.226;2023-10-09T09:08:51;49.40;43.03;64.74;;
43938;Laerm;71382;47.750;10.226;2023-10-09T09:11:20;50.16;42.94;69.03;;
43938;Laerm;71382;47.750;10.226;2023-10-09T09:16:29;48.62;41.96;63.16;;
43938;Laerm;71382;47.750;10.226;2023-10-09T09:19:07;49.53;42.77;63.26;;
43938;Laerm;71382;47.750;10.226;2023-10-09T09:21:40;49.12;43.41;61.70;;
43938;Laerm;71382;47.750;10.226;2023-10-09T09:24:10;49.28;44.27;68.15;;
43938;Laerm;71382;47.750;10.226;2023-10-09T09:27:09;48.43;44.28;60.05;;
43938;Laerm;71382;47.750;10.226;2023-10-09T09:29:44;48.60;42.23;65.22;;
43938;Laerm;71382;47.750;10.226;2023-10-09T09:32:26;48.31;42.44;57.03;;
43938;Laerm;71382;47.750;10.226;2023-10-09T09:34:55;47.88;42.37;55.20;;
43938;Laerm;71382;47.750;10.226;2023-10-09T09:37:27;47.51;41.60;60.43;;
43938;Laerm;71382;47.750;10.226;2023-10-09T09:40:15;48.89;42.12;61.76;;
43938;Laerm;71382;47.750;10.226;2023-10-09T09:42:59;50.83;42.41;66.72;;
43938;Laerm;71382;47.750;10.226;2023-10-09T09:45:35;49.40;41.64;65.94;;
43938;Laerm;71382;47.750;10.226;2023-10-09T09:48:05;49.39;42.16;68.17;;
43938;Laerm;71382;47.750;10.226;2023-10-09T09:50:36;47.95;43.02;60.93;;
43938;Laerm;71382;47.750;10.226;2023-10-09T09:53:12;50.52;42.21;70.91;;
43938;Laerm;71382;47.750;10.226;2023-10-09T09:55:51;49.69;42.56;60.33;;
43938;Laerm;71382;47.750;10.226;2023-10-09T09:58:23;53.54;42.72;71.63;;
43938;Laerm;71382;47.750;10.226;2023-10-09T10:00:50;52.87;42.65;71.66;;
43938;Laerm;71382;47.750;10.226;2023-10-09T10:03:20;52.01;43.08;73.77;;
43938;Laerm;71382;47.750;10.226;2023-10-09T10:05:47;47.67;40.45;60.29;;
43938;Laerm;71382;47.750;10.226;2023-10-09T10:08:16;48.62;38.75;67.82;;
43938;Laerm;71382;47.750;10.226;2023-10-09T10:10:48;52.17;38.06;73.13;;
43938;Laerm;71382;47.750;10.226;2023-10-09T10:13:16;45.31;37.76;61.93;;
43938;Laerm;71382;47.750;10.226;2023-10-09T10:15:57;49.61;39.19;64.36;;
43938;Laerm;71382;47.750;10.226;2023-10-09T10:18:32;47.54;38.54;67.04;;
43938;Laerm;71382;47.750;10.226;2023-10-09T10:23:40;47.93;38.81;68.97;;
43938;Laerm;71382;47.750;10.226;2023-10-09T10:29:03;47.24;38.89;62.62;;
43938;Laerm;71382;47.750;10.226;2023-10-09T10:37:11;49.41;37.66;68.84;;
43938;Laerm;71382;47.750;10.226;2023-10-09T10:39:50;51.03;45.97;65.36;;
43938;Laerm;71382;47.750;10.226;2023-10-09T10:42:16;51.20;45.95;63.21;;
43938;Laerm;71382;47.750;10.226;2023-10-09T10:45:02;51.69;46.73;62.94;;
43938;Laerm;71382;47.750;10.226;2023-10-09T10:47:29;51.45;43.82;63.58;;
43938;Laerm;71382;47.750;10.226;2023-10-09T10:50:01;52.07;43.02;71.43;;
43938;Laerm;71382;47.750;10.226;2023-10-09T10:56:01;49.99;42.30;65.13;;
43938;Laerm;71382;47.750;10.226;2023-10-09T10:58:53;49.74;41.88;64.16;;
43938;Laerm;71382;47.750;10.226;2023-10-09T11:01:30;48.36;42.01;62.32;;
43938;Laerm;71382;47.750;10.226;2023-10-09T11:04:16;48.22;42.04;62.03;;
43938;Laerm;71382;47.750;10.226;2023-10-09T11:06:53;47.81;41.37;60.11;;
43938;Laerm;71382;47.750;10.226;2023-10-09T11:09:25;51.21;42.73;72.92;;
43938;Laerm;71382;47.750;10.226;2023-10-09T11:12:09;51.97;41.84;70.25;;
43938;Laerm;71382;47.750;10.226;2023-10-09T11:14:47;49.59;42.23;60.89;;
43938;Laerm;71382;47.750;10.226;2023-10-09T11:17:31;49.13;41.82;66.37;;
43938;Laerm;71382;47.750;10.226;2023-10-09T11:19:58;51.47;43.23;69.73;;
43938;Laerm;71382;47.750;10.226;2023-10-09T11:22:23;49.08;42.66;64.06;;
43938;Laerm;71382;47.750;10.226;2023-10-09T11:25:01;54.06;42.52;71.31;;
43938;Laerm;71382;47.750;10.226;2023-10-09T11:27:36;53.08;43.25;76.04;;
43938;Laerm;71382;47.750;10.226;2023-10-09T11:30:05;48.88;42.77;60.90;;
43938;Laerm;71382;47.750;10.226;2023-10-09T11:32:50;47.99;42.36;61.64;;
43938;Laerm;71382;47.750;10.226;2023-10-09T11:35:17;50.11;42.89;64.43;;
43938;Laerm;71382;47.750;10.226;2023-10-09T11:37:54;48.63;41.21;61.45;;
43938;Laerm;71382;47.750;10.226;2023-10-09T11:40:30;49.39;41.54;65.61;;
43938;Laerm;71382;47.750;10.226;2023-10-09T11:43:13;50.09;41.92;68.20;;
43938;Laerm;71382;47.750;10.226;2023-10-09T11:45:39;47.98;41.80;58.86;;
43938;Laerm;71382;47.750;10.226;2023-10-09T11:48:17;47.85;41.37;59.51;;
43938;Laerm;71382;47.750;10.226;2023-10-09T11:51:12;50.74;41.14;68.92;;
43938;Laerm;71382;47.750;10.226;2023-10-09T11:53:46;50.20;42.86;67.15;;
43938;Laerm;71382;47.750;10.226;2023-10-09T11:56:15;52.61;47.02;72.61;;
43938;Laerm;71382;47.750;10.226;2023-10-09T11:58:42;53.34;47.09;72.24;;
43938;Laerm;71382;47.750;10.226;2023-10-09T12:01:13;51.45;47.16;61.95;;
43938;Laerm;71382;47.750;10.226;2023-10-09T12:03:46;50.77;47.02;60.96;;
43938;Laerm;71382;47.750;10.226;2023-10-09T12:06:18;51.67;47.22;65.84;;
43938;Laerm;71382;47.750;10.226;2023-10-09T12:08:47;50.84;46.53;64.51;;
43938;Laerm;71382;47.750;10.226;2023-10-09T12:11:13;51.39;43.01;70.34;;
43938;Laerm;71382;47.750;10.226;2023-10-09T12:13:48;54.13;42.07;74.96;;
43938;Laerm;71382;47.750;10.226;2023-10-09T12:16:14;49.31;41.53;66.32;;
43938;Laerm;71382;47.750;10.226;2023-10-09T12:18:41;48.87;41.61;65.21;;
43938;Laerm;71382;47.750;10.226;2023-10-09T12:21:08;49.21;42.00;62.31;;
43938;Laerm;71382;47.750;10.226;2023-10-09T12:23:34;49.84;42.53;68.72;;
43938;Laerm;71382;47.750;10.226;2023-10-09T12:26:02;49.82;42.30;70.86;;
43938;Laerm;71382;47.750;10.226;2023-10-09T12:28:28;49.46;42.41;59.81;;
43938;Laerm;71382;47.750;10.226;2023-10-09T12:30:55;50.63;42.32;65.51;;
43938;Laerm;71382;47.750;10.226;2023-10-09T12:33:21;49.11;42.16;63.46;;
43938;Laerm;71382;47.750;10.226;2023-10-09T12:35:56;48.88;41.39;62.69;;
43938;Laerm;71382;47.750;10.226;2023-10-09T12:38:26;49.98;41.97;62.33;;
43938;Laerm;71382;47.750;10.226;2023-10-09T12:43:34;47.52;41.68;62.26;;
43938;Laerm;71382;47.750;10.226;2023-10-09T12:46:06;46.91;41.24;58.98;;
43938;Laerm;71382;47.750;10.226;2023-10-09T12:48:33;50.56;40.69;67.60;;
43938;Laerm;71382;47.750;10.226;2023-10-09T12:50:58;51.47;47.19;61.15;;
43938;Laerm;71382;47.750;10.226;2023-10-09T12:53:32;51.15;46.30;63.22;;
43938;Laerm;71382;47.750;10.226;2023-10-09T12:55:58;51.02;46.91;59.29;;
43938;Laerm;71382;47.750;10.226;2023-10-09T12:58:23;50.61;41.50;69.64;;
43938;Laerm;71382;47.750;10.226;2023-10-09T13:00:52;47.50;41.87;65.62;;
43938;Laerm;71382;47.750;10.226;2023-10-09T13:03:18;45.74;38.69;61.94;;
43938;Laerm;71382;47.750;10.226;2023-10-09T13:08:24;51.86;39.97;65.79;;
43938;Laerm;71382;47.750;10.226;2023-10-09T13:10:56;45.23;40.21;57.96;;
43938;Laerm;71382;47.750;10.226;2023-10-09T13:13:26;45.05;38.78;58.49;;
43938;Laerm;71382;47.750;10.226;2023-10-09T13:16:01;45.70;39.53;54.38;;
43938;Laerm;71382;47.750;10.226;2023-10-09T13:18:31;48.55;41.74;60.01;;
43938;Laerm;71382;47.750;10.226;2023-10-09T13:20:57;47.40;41.43;59.98;;
43938;Laerm;71382;47.750;10.226;2023-10-09T13:23:29;47.39;40.80;56.83;;
43938;Laerm;71382;47.750;10.226;2023-10-09T13:26:06;47.11;41.41;54.65;;
43938;Laerm;71382;47.750;10.226;2023-10-09T13:28:46;47.53;41.51;55.57;;
43938;Laerm;71382;47.750;10.226;2023-10-09T13:31:13;47.56;41.69;55.32;;
43938;Laerm;71382;47.750;10.226;2023-10-09T13:33:40;52.22;40.75;67.07;;
43938;Laerm;71382;47.750;10.226;2023-10-09T13:36:05;47.03;40.74;57.47;;
43938;Laerm;71382;47.750;10.226;2023-10-09T13:38:34;49.05;42.00;61.36;;
43938;Laerm;71382;47.750;10.226;2023-10-09T13:40:59;50.30;41.63;59.78;;
43938;Laerm;71382;47.750;10.226;2023-10-09T13:43:26;50.92;47.20;56.16;;
43938;Laerm;71382;47.750;10.226;2023-10-09T13:45:53;51.52;46.74;61.05;;
43938;Laerm;71382;47.750;10.226;2023-10-09T13:48:22;50.69;46.76;58.46;;
43938;Laerm;71382;47.750;10.226;2023-10-09T13:50:50;50.31;47.12;54.24;;
43938;Laerm;71382;47.750;10.226;2023-10-09T13:53:16;50.30;46.55;53.84;;
43938;Laerm;71382;47.750;10.226;2023-10-09T13:55:41;50.47;46.41;57.28;;
43938;Laerm;71382;47.750;10.226;2023-10-09T13:58:10;53.02;46.30;64.52;;
43938;Laerm;71382;47.750;10.226;2023-10-09T14:00:39;50.50;46.71;56.41;;
43938;Laerm;71382;47.750;10.226;2023-10-09T14:03:07;50.51;47.22;58.08;;
43938;Laerm;71382;47.750;10.226;2023-10-09T14:05:39;50.57;47.41;57.64;;
43938;Laerm;71382;47.750;10.226;2023-10-09T14:08:18;52.08;46.95;65.54;;
43938;Laerm;71382;47.750;10.226;2023-10-09T14:10:44;51.65;46.25;68.90;;
43938;Laerm;71382;47.750;10.226;2023-10-09T14:13:14;50.56;46.55;55.84;;
43938;Laerm;71382;47.750;10.226;2023-10-09T14:15:39;49.71;46.27;52.70;;
43938;Laerm;71382;47.750;10.226;2023-10-09T14:18:06;49.96;46.89;54.37;;
43938;Laerm;71382;47.750;10.226;2023-10-09T14:20:34;50.54;46.64;62.38;;
43938;Laerm;71382;47.750;10.226;2023-10-09T14:23:00;51.45;46.86;60.75;;
43938;Laerm;71382;47.750;10.226;2023-10-09T14:25:32;49.89;46.36;54.15;;
43938;Laerm;71382;47.750;10.226;2023-10-09T14:27:58;50.45;46.18;57.37;;